Extreme high temperature From: 23-07-2018 05:00 Until: 24-07-2018 01:00 warning for: Extreme high temperature Level: Yellow info button
suomi:
Hellevaroitus: Lähivuorokauden aikana on odotettavissa tukalaa hellettä.

svenska:
Varning för värmebölja: Under det närmaste dygnet är den svåra hettan att vänta.

english:
Heat wave warning: Warm weather is expected during the coming 24 hours. 


Thunder radar more information blitzortung!


Löydät sääaseman tiedot myös:

European Weather Network

Finland Weather Exchange

Weather Underground

AWEKAS



Weather Underground säähistoriasivu

Päivittäin yhteenveto Huhtikuu 21, 2017 Yksiköt:  Metriset    Englantilaiset   Molemmat
« Edellinen Päivä
Seuraava Päivä »
Päivittäin Viikoittain Kuukausittain Vuosittain Mukautettu
  Korkea: Matala: Keskiarvo:
Lämpötila: -17.8 °C -17.9 °C -15.7 °C
Kastepiste: -17.8 °C -19.7 °C -18 °C
Kosteus: Humidity % 44 % 76 %
Tuulen nopeus: 0 km/h 0 km/h 7.4 km/h
Tuulenpuuska: 0 km/h - -
Tuuli:- - SW
Ilmanpaine: 0 hPa 33396.1 hPa -
Sade: 12.7 mm    
Historical Graphs
 
 
Taulukkotiedot Huhtikuu 21, 2017
Aika Lämpötila Kastepiste Ilmanpaine Tuuli Tuulen nopeus Tuulenpuuska Kosteus Sademäärä (tunneittain)
-17.8 °C -17.8 °C 0 hPa Calm     Humidity % 0 mm
00:00 -16.9 °C -17.3 °C 33981.9 hPa SSW 7.7 km/h 15.6 km/h 95 % 0 mm
00:15 -16.9 °C -17.3 °C 33981.9 hPa SSW 10.3 km/h 15.6 km/h 96 % 0 mm
00:30 -17.1 °C -17.4 °C 33971.7 hPa SSW 5.1 km/h 12.9 km/h 95 % 0 mm
00:45 -17.2 °C -17.6 °C 33948 hPa Calm   15.6 km/h 95 % 0 mm
01:00 -17.3 °C -17.7 °C 33948 hPa SSW 2.6 km/h 12.9 km/h 95 % 0 mm
01:15 -17.4 °C -17.8 °C 33937.9 hPa South 2.6 km/h 10.3 km/h 95 % 0 mm
01:30 -17.6 °C -17.9 °C 33924.3 hPa Calm   5.1 km/h 95 % 0 mm
01:45 -17.6 °C -17.9 °C 33914.2 hPa Calm   10.3 km/h 96 % 0 mm
02:00 -17.7 °C -18.1 °C 33914.2 hPa Calm   7.7 km/h 95 % 0 mm
02:15 -17.8 °C -18.1 °C 33900.6 hPa Calm   5.1 km/h 96 % 0 mm
02:30 -17.8 °C -18.1 °C 33900.6 hPa SSE 2.6 km/h 10.3 km/h 96 % 0 mm
02:45 -17.8 °C -18.1 °C 33890.5 hPa Calm   10.3 km/h 96 % 0 mm
03:00 -17.9 °C -18.2 °C 33880.3 hPa Calm   12.9 km/h 96 % 0 mm
03:15 -17.8 °C -18.2 °C 33866.8 hPa South 2.6 km/h 7.7 km/h 96 % 0 mm
03:30 -17.8 °C -18.1 °C 33856.6 hPa Calm   5.1 km/h 96 % 0 mm
03:45 -17.9 °C -18.2 °C 33843.1 hPa Calm   2.6 km/h 96 % 0 mm
04:00 -17.9 °C -18.2 °C 33832.9 hPa Calm   7.7 km/h 96 % 0 mm
04:30 -17.5 °C -17.8 °C 33822.8 hPa SSW 5.1 km/h 12.9 km/h 96 % 0 mm
04:45 -17.4 °C -17.7 °C 33809.2 hPa SSW 2.6 km/h 12.9 km/h 96 % 0 mm
05:00 -17.4 °C -17.8 °C 33809.2 hPa SW 2.6 km/h 10.3 km/h 95 % 0 mm
05:15 -17.4 °C -17.9 °C 33799.1 hPa Calm   7.7 km/h 95 % 0 mm
05:30 -17.4 °C -17.9 °C 33788.9 hPa SW 5.1 km/h 15.6 km/h 95 % 0 mm
05:45 -17.4 °C -17.9 °C 33765.2 hPa SSW 5.1 km/h 15.6 km/h 94 % 0 mm
06:00 -17.4 °C -17.9 °C 33751.6 hPa SSW 5.1 km/h 15.6 km/h 94 % 0 mm
06:15 -17.3 °C -17.8 °C 33741.5 hPa SSW 5.1 km/h 18.2 km/h 94 % 0 mm
06:30 -17.3 °C -17.9 °C 33731.3 hPa SSW 5.1 km/h 12.9 km/h 93 % 0 mm
06:45 -17.1 °C -17.8 °C 33731.3 hPa SSW 10.3 km/h 20.8 km/h 92 % 0 mm
07:00 -17 °C -17.7 °C 33731.3 hPa SSW 7.7 km/h 15.6 km/h 91 % 0 mm
07:15 -16.9 °C -17.8 °C 33707.6 hPa SSW 7.7 km/h 20.8 km/h 90 % 0 mm
07:30 -16.9 °C -17.7 °C 33707.6 hPa SSW 7.7 km/h 20.8 km/h 90 % 0 mm
07:45 -16.6 °C -17.6 °C 33694.1 hPa SSW 7.7 km/h 20.8 km/h 89 % 0 mm
08:00 -16.4 °C -17.4 °C 33683.9 hPa SW 7.7 km/h 23.3 km/h 87 % 0 mm
08:15 -16.2 °C -17.3 °C 33683.9 hPa SW 7.7 km/h 20.8 km/h 86 % 0 mm
08:30 -16.1 °C -17.3 °C 33673.8 hPa SW 5.1 km/h 25.9 km/h 85 % 0 mm
08:45 -15.9 °C -17.2 °C 33673.8 hPa WSW 5.1 km/h 23.3 km/h 84 % 0 mm
09:00 -15.6 °C -17.3 °C 33673.8 hPa West 7.7 km/h 25.9 km/h 81 % 0 mm
09:15 -15.4 °C -17.4 °C 33660.2 hPa WSW 10.3 km/h 25.9 km/h 78 % 0 mm
09:30 -15.2 °C -17.3 °C 33660.2 hPa WSW 7.7 km/h 33.6 km/h 76 % 0 mm
09:45 -15 °C -17.6 °C 33660.2 hPa West 12.9 km/h 31.1 km/h 72 % 0 mm
10:00 -14.8 °C -18 °C 33650.1 hPa West 12.9 km/h 28.5 km/h 67 % 0 mm
10:15 -14.9 °C -17.9 °C 33650.1 hPa West 10.3 km/h 38.8 km/h 69 % 0 mm
10:30 -14.7 °C -17.8 °C 33650.1 hPa SW 12.9 km/h 44.1 km/h 67 % 0 mm
10:45 -14.8 °C -18.2 °C 33639.9 hPa WNW 15.6 km/h 59.5 km/h 64 % 0 mm
11:00 -14.7 °C -18.1 °C 33626.4 hPa West 15.6 km/h 41.4 km/h 65 % 0 mm
11:15 -14.6 °C -17.9 °C 33626.4 hPa WSW 10.3 km/h 23.3 km/h 65 % 0 mm
11:30 -14.6 °C -18 °C 33626.4 hPa SW 12.9 km/h 38.8 km/h 65 % 0 mm
11:45 -15.2 °C -17.4 °C 33639.9 hPa West 12.9 km/h 31.1 km/h 75 % 0 mm
12:00 -15.6 °C -17.6 °C 33650.1 hPa SW 12.9 km/h 33.6 km/h 78 % 0 mm
12:15 -16.2 °C -17.2 °C 33650.1 hPa SW 7.7 km/h 23.3 km/h 88 % 0 mm
12:30 -16.2 °C -17.1 °C 33639.9 hPa SW 10.3 km/h 28.5 km/h 90 % 7.62 mm
12:45 -16.3 °C -16.9 °C 33639.9 hPa SSW 10.3 km/h 23.3 km/h 92 % 7.62 mm
13:00 -16.1 °C -16.7 °C 33626.4 hPa SSW 7.7 km/h 33.6 km/h 92 % 7.62 mm
13:15 -15.6 °C -16.7 °C 33616.2 hPa SSW 12.9 km/h 23.3 km/h 87 % 7.62 mm
13:30 -15.1 °C -16.7 °C 33616.2 hPa SW 12.9 km/h 36.2 km/h 81 % 0 mm
13:45 -14.3 °C -16.9 °C 33602.7 hPa SW 12.9 km/h 41.4 km/h 71 % 0 mm
14:00 -14.2 °C -17.7 °C 33602.7 hPa SW 12.9 km/h 41.4 km/h 64 % 0 mm
14:15 -14.1 °C -17.6 °C 33592.5 hPa WSW 12.9 km/h 31.1 km/h 64 % 0 mm
14:30 -14 °C -17.6 °C 33592.5 hPa SW 10.3 km/h 25.9 km/h 63 % 0 mm
14:45 -13.5 °C -17.8 °C 33592.5 hPa SW 12.9 km/h 31.1 km/h 58 % 0 mm
15:00 -13.2 °C -17.5 °C 33582.3 hPa WSW 10.3 km/h 33.6 km/h 58 % 0 mm
15:15 -13.4 °C -17.8 °C 33582.3 hPa SW 12.9 km/h 44.1 km/h 57 % 0 mm
15:30 -13.1 °C -18.1 °C 33568.8 hPa WSW 10.3 km/h 23.3 km/h 53 % 0 mm
15:45 -13.4 °C -18.4 °C 33568.8 hPa West 15.6 km/h 44.1 km/h 53 % 0 mm
16:00 -13.3 °C -18.7 °C 33568.8 hPa West 15.6 km/h 38.8 km/h 50 % 0 mm
16:15 -13.4 °C -18.9 °C 33558.6 hPa WSW 10.3 km/h 41.4 km/h 50 % 0 mm
16:30 -13.2 °C -18.5 °C 33558.6 hPa WNW 10.3 km/h 25.9 km/h 51 % 0 mm
16:45 -13 °C -19.1 °C 33545.1 hPa WSW 12.9 km/h 49.2 km/h 46 % 0 mm
17:00 -12.9 °C -19.1 °C 33534.9 hPa WSW 15.6 km/h 36.2 km/h 46 % 0 mm
17:15 -12.8 °C -18.9 °C 33534.9 hPa WSW 12.9 km/h 25.9 km/h 46 % 0 mm
17:30 -12.9 °C -19.2 °C 33524.8 hPa WSW 12.9 km/h 38.8 km/h 45 % 0 mm
17:45 -13.2 °C -19.7 °C 33524.8 hPa WNW 12.9 km/h 41.4 km/h 44 % 0 mm
18:00 -13.6 °C -19.7 °C 33524.8 hPa West 7.7 km/h 41.4 km/h 46 % 0 mm
18:15 -13.3 °C -19.4 °C 33511.2 hPa West 12.9 km/h 33.6 km/h 46 % 0 mm
18:45 -13.6 °C -19.3 °C 33501.1 hPa West 7.7 km/h 31.1 km/h 48 % 0 mm
19:00 -14 °C -19.2 °C 33501.1 hPa West 7.7 km/h 33.6 km/h 51 % 0 mm
19:15 -14.1 °C -19.2 °C 33490.9 hPa SW 5.1 km/h 20.8 km/h 52 % 0 mm
19:30 -14.2 °C -19.3 °C 33477.4 hPa West 10.3 km/h 28.5 km/h 52 % 7.62 mm
19:45 -14.6 °C -18.8 °C 33490.9 hPa West 5.1 km/h 18.2 km/h 58 % 7.62 mm
20:00 -14.8 °C -18.6 °C 33477.4 hPa SW 7.7 km/h 18.2 km/h 62 % 7.62 mm
20:15 -15.1 °C -18.6 °C 33477.4 hPa West 2.6 km/h 10.3 km/h 64 % 0 mm
20:45 -15.5 °C -18.5 °C 33467.2 hPa SW 2.6 km/h 10.3 km/h 68 % 0 mm
21:00 -15.6 °C -18.4 °C 33467.2 hPa SSW 5.1 km/h 15.6 km/h 69 % 0 mm
21:15 -15.7 °C -18.5 °C 33453.7 hPa SSW 7.7 km/h 15.6 km/h 69 % 0 mm
21:30 -15.7 °C -18.4 °C 33453.7 hPa SSW 5.1 km/h 20.8 km/h 70 % 0 mm
21:45 -15.7 °C -18.4 °C 33453.7 hPa SSW 2.6 km/h 12.9 km/h 71 % 0 mm
22:00 -15.8 °C -18.5 °C 33453.7 hPa WSW 2.6 km/h 20.8 km/h 71 % 0 mm
22:15 -15.9 °C -18.2 °C 33443.5 hPa WSW 7.7 km/h 28.5 km/h 74 % 0 mm
22:30 -16.2 °C -17.7 °C 33443.5 hPa SW 5.1 km/h 15.6 km/h 82 % 0 mm
22:45 -16.6 °C -17.7 °C 33433.4 hPa SSW 5.1 km/h 18.2 km/h 86 % 0 mm
23:00 -16.7 °C -17.8 °C 33419.8 hPa SSW 2.6 km/h 10.3 km/h 87 % 0 mm
23:15 -16.8 °C -17.8 °C 33419.8 hPa SSW 5.1 km/h 20.8 km/h 87 % 0 mm
23:30 -16.7 °C -17.8 °C 33409.7 hPa SSW 5.1 km/h 15.6 km/h 87 % 0 mm
23:45 -16.7 °C -17.8 °C 33396.1 hPa SSW 7.7 km/h 18.2 km/h 87 % 0 mm
Esan sääasema
Terveisin Weather Underground - 2.75 mb

Alkuperäinen skripti  Jim McMurry - jmcmurry@mwt.net Sovitettu myös templatelle  Wim van der Kuil - Leuven-Template.eu

Laitteet joita käytämme:

Sääasema
Davis VP2

Sääasemaohjelma
Cumulus

Sääaseman tietokone
Asus EeePC

Palveluntarjoaja
Suncomet

Davis VP2

Cumulus

Asus EeePC

Suncomet